sensor_id;sensor_type;location;lat;lon;timestamp;P1;durP1;ratioP1;P2;durP2;ratioP2
71464;SDS011;59274;49.874;9.154;2022-12-08T00:00:08;17.60;;;8.20;;
71464;SDS011;59274;49.874;9.154;2022-12-08T00:02:34;16.30;;;7.95;;
71464;SDS011;59274;49.874;9.154;2022-12-08T00:05:00;17.23;;;7.63;;
71464;SDS011;59274;49.874;9.154;2022-12-08T00:07:44;15.05;;;7.47;;
71464;SDS011;59274;49.874;9.154;2022-12-08T00:10:28;17.55;;;8.38;;
71464;SDS011;59274;49.874;9.154;2022-12-08T00:12:54;16.45;;;7.28;;
71464;SDS011;59274;49.874;9.154;2022-12-08T00:15:19;18.15;;;9.00;;
71464;SDS011;59274;49.874;9.154;2022-12-08T00:17:45;15.80;;;7.27;;
71464;SDS011;59274;49.874;9.154;2022-12-08T00:20:11;21.52;;;8.20;;
71464;SDS011;59274;49.874;9.154;2022-12-08T00:22:36;18.07;;;7.73;;
71464;SDS011;59274;49.874;9.154;2022-12-08T00:25:02;20.33;;;8.07;;
71464;SDS011;59274;49.874;9.154;2022-12-08T00:27:28;17.45;;;7.68;;
71464;SDS011;59274;49.874;9.154;2022-12-08T00:29:53;16.27;;;7.83;;
71464;SDS011;59274;49.874;9.154;2022-12-08T00:32:19;20.00;;;8.33;;
71464;SDS011;59274;49.874;9.154;2022-12-08T00:34:44;18.02;;;7.65;;
71464;SDS011;59274;49.874;9.154;2022-12-08T00:37:10;16.97;;;7.93;;
71464;SDS011;59274;49.874;9.154;2022-12-08T00:39:35;17.93;;;8.73;;
71464;SDS011;59274;49.874;9.154;2022-12-08T00:42:01;18.38;;;8.15;;
71464;SDS011;59274;49.874;9.154;2022-12-08T00:44:39;20.00;;;8.20;;
71464;SDS011;59274;49.874;9.154;2022-12-08T00:47:06;17.37;;;7.87;;
71464;SDS011;59274;49.874;9.154;2022-12-08T00:49:31;15.25;;;7.60;;
71464;SDS011;59274;49.874;9.154;2022-12-08T00:51:57;19.10;;;7.87;;
71464;SDS011;59274;49.874;9.154;2022-12-08T00:54:23;16.75;;;7.72;;
71464;SDS011;59274;49.874;9.154;2022-12-08T00:56:48;18.23;;;7.67;;
71464;SDS011;59274;49.874;9.154;2022-12-08T00:59:14;19.23;;;8.13;;
71464;SDS011;59274;49.874;9.154;2022-12-08T01:01:40;17.37;;;8.13;;
71464;SDS011;59274;49.874;9.154;2022-12-08T01:04:09;17.10;;;7.75;;
71464;SDS011;59274;49.874;9.154;2022-12-08T01:06:39;18.25;;;7.38;;
71464;SDS011;59274;49.874;9.154;2022-12-08T01:09:06;18.63;;;7.63;;
71464;SDS011;59274;49.874;9.154;2022-12-08T01:11:32;19.23;;;8.07;;
71464;SDS011;59274;49.874;9.154;2022-12-08T01:13:58;17.00;;;7.63;;
71464;SDS011;59274;49.874;9.154;2022-12-08T01:16:25;17.67;;;8.23;;
71464;SDS011;59274;49.874;9.154;2022-12-08T01:18:53;18.95;;;8.35;;
71464;SDS011;59274;49.874;9.154;2022-12-08T01:21:19;16.30;;;8.45;;
71464;SDS011;59274;49.874;9.154;2022-12-08T01:23:45;16.75;;;7.40;;
71464;SDS011;59274;49.874;9.154;2022-12-08T01:26:12;15.57;;;7.15;;
71464;SDS011;59274;49.874;9.154;2022-12-08T01:28:39;17.13;;;7.83;;
71464;SDS011;59274;49.874;9.154;2022-12-08T01:31:09;17.75;;;7.53;;
71464;SDS011;59274;49.874;9.154;2022-12-08T01:33:40;20.95;;;8.63;;
71464;SDS011;59274;49.874;9.154;2022-12-08T01:36:06;17.50;;;7.45;;
71464;SDS011;59274;49.874;9.154;2022-12-08T01:38:33;16.60;;;7.60;;
71464;SDS011;59274;49.874;9.154;2022-12-08T01:40:59;18.13;;;7.93;;
71464;SDS011;59274;49.874;9.154;2022-12-08T01:43:24;17.53;;;7.50;;
71464;SDS011;59274;49.874;9.154;2022-12-08T01:45:50;21.92;;;8.65;;
71464;SDS011;59274;49.874;9.154;2022-12-08T01:48:17;17.13;;;8.20;;
71464;SDS011;59274;49.874;9.154;2022-12-08T01:50:47;21.80;;;8.70;;
71464;SDS011;59274;49.874;9.154;2022-12-08T01:53:18;16.95;;;7.95;;
71464;SDS011;59274;49.874;9.154;2022-12-08T01:55:49;17.73;;;7.87;;
71464;SDS011;59274;49.874;9.154;2022-12-08T01:58:27;18.13;;;7.80;;
71464;SDS011;59274;49.874;9.154;2022-12-08T02:01:04;16.42;;;7.88;;
71464;SDS011;59274;49.874;9.154;2022-12-08T02:03:33;20.15;;;8.75;;
71464;SDS011;59274;49.874;9.154;2022-12-08T02:06:03;17.30;;;7.53;;
71464;SDS011;59274;49.874;9.154;2022-12-08T02:08:30;17.02;;;8.60;;
71464;SDS011;59274;49.874;9.154;2022-12-08T02:10:55;20.15;;;8.30;;
71464;SDS011;59274;49.874;9.154;2022-12-08T02:13:21;22.10;;;8.57;;
71464;SDS011;59274;49.874;9.154;2022-12-08T02:16:09;17.35;;;8.13;;
71464;SDS011;59274;49.874;9.154;2022-12-08T02:21:32;18.33;;;8.03;;
71464;SDS011;59274;49.874;9.154;2022-12-08T02:24:13;22.55;;;9.30;;
71464;SDS011;59274;49.874;9.154;2022-12-08T02:34:36;21.60;;;8.17;;
71464;SDS011;59274;49.874;9.154;2022-12-08T02:37:11;18.42;;;8.00;;
71464;SDS011;59274;49.874;9.154;2022-12-08T02:42:19;23.55;;;9.10;;
71464;SDS011;59274;49.874;9.154;2022-12-08T02:45:00;18.00;;;7.93;;
71464;SDS011;59274;49.874;9.154;2022-12-08T02:47:34;21.00;;;8.75;;
71464;SDS011;59274;49.874;9.154;2022-12-08T02:50:00;20.80;;;8.35;;
71464;SDS011;59274;49.874;9.154;2022-12-08T03:00:20;17.70;;;7.93;;
71464;SDS011;59274;49.874;9.154;2022-12-08T03:06:05;18.00;;;8.00;;
71464;SDS011;59274;49.874;9.154;2022-12-08T03:11:54;20.50;;;8.70;;
71464;SDS011;59274;49.874;9.154;2022-12-08T03:14:25;19.88;;;7.93;;
71464;SDS011;59274;49.874;9.154;2022-12-08T03:16:53;19.02;;;8.77;;
71464;SDS011;59274;49.874;9.154;2022-12-08T03:19:31;18.92;;;7.88;;
71464;SDS011;59274;49.874;9.154;2022-12-08T03:22:02;18.30;;;8.32;;
71464;SDS011;59274;49.874;9.154;2022-12-08T03:24:30;17.63;;;7.37;;
71464;SDS011;59274;49.874;9.154;2022-12-08T03:29:31;21.63;;;8.60;;
71464;SDS011;59274;49.874;9.154;2022-12-08T03:31:59;20.02;;;8.32;;
71464;SDS011;59274;49.874;9.154;2022-12-08T03:34:47;18.58;;;7.80;;
71464;SDS011;59274;49.874;9.154;2022-12-08T03:37:14;19.27;;;8.67;;
71464;SDS011;59274;49.874;9.154;2022-12-08T03:39:40;19.48;;;7.95;;
71464;SDS011;59274;49.874;9.154;2022-12-08T03:42:06;18.45;;;8.30;;
71464;SDS011;59274;49.874;9.154;2022-12-08T03:44:31;18.43;;;8.30;;
71464;SDS011;59274;49.874;9.154;2022-12-08T03:46:57;20.83;;;8.53;;
71464;SDS011;59274;49.874;9.154;2022-12-08T03:49:22;23.08;;;8.50;;
71464;SDS011;59274;49.874;9.154;2022-12-08T03:51:48;17.38;;;8.18;;
71464;SDS011;59274;49.874;9.154;2022-12-08T03:54:13;21.07;;;9.27;;
71464;SDS011;59274;49.874;9.154;2022-12-08T03:56:39;21.53;;;9.03;;
71464;SDS011;59274;49.874;9.154;2022-12-08T03:59:04;20.73;;;9.30;;
71464;SDS011;59274;49.874;9.154;2022-12-08T04:01:31;20.58;;;8.82;;
71464;SDS011;59274;49.874;9.154;2022-12-08T04:03:56;18.63;;;8.07;;
71464;SDS011;59274;49.874;9.154;2022-12-08T04:06:22;17.70;;;7.93;;
71464;SDS011;59274;49.874;9.154;2022-12-08T04:08:48;18.77;;;8.40;;
71464;SDS011;59274;49.874;9.154;2022-12-08T04:11:15;19.50;;;7.97;;
71464;SDS011;59274;49.874;9.154;2022-12-08T04:13:42;18.92;;;8.88;;
71464;SDS011;59274;49.874;9.154;2022-12-08T04:16:12;21.75;;;8.48;;
71464;SDS011;59274;49.874;9.154;2022-12-08T04:18:39;18.98;;;8.25;;
71464;SDS011;59274;49.874;9.154;2022-12-08T04:21:05;18.83;;;8.07;;
71464;SDS011;59274;49.874;9.154;2022-12-08T04:23:30;16.70;;;7.63;;
71464;SDS011;59274;49.874;9.154;2022-12-08T04:25:56;22.43;;;7.93;;
71464;SDS011;59274;49.874;9.154;2022-12-08T04:28:21;18.03;;;8.00;;
71464;SDS011;59274;49.874;9.154;2022-12-08T04:30:47;18.52;;;7.28;;
71464;SDS011;59274;49.874;9.154;2022-12-08T04:33:13;19.37;;;7.83;;
71464;SDS011;59274;49.874;9.154;2022-12-08T04:35:39;17.30;;;7.53;;
71464;SDS011;59274;49.874;9.154;2022-12-08T04:38:04;17.97;;;8.47;;
71464;SDS011;59274;49.874;9.154;2022-12-08T04:40:30;19.30;;;8.83;;
71464;SDS011;59274;49.874;9.154;2022-12-08T04:42:55;17.57;;;8.10;;
71464;SDS011;59274;49.874;9.154;2022-12-08T04:45:20;15.30;;;7.10;;
71464;SDS011;59274;49.874;9.154;2022-12-08T04:47:46;17.70;;;7.82;;
71464;SDS011;59274;49.874;9.154;2022-12-08T04:50:11;17.50;;;7.67;;
71464;SDS011;59274;49.874;9.154;2022-12-08T04:52:37;17.87;;;8.03;;
71464;SDS011;59274;49.874;9.154;2022-12-08T04:55:03;16.27;;;7.32;;
71464;SDS011;59274;49.874;9.154;2022-12-08T04:57:29;17.85;;;8.30;;
71464;SDS011;59274;49.874;9.154;2022-12-08T04:59:54;16.03;;;7.17;;
71464;SDS011;59274;49.874;9.154;2022-12-08T05:02:19;18.67;;;8.07;;
71464;SDS011;59274;49.874;9.154;2022-12-08T05:04:45;16.37;;;7.93;;
71464;SDS011;59274;49.874;9.154;2022-12-08T05:07:10;17.17;;;7.40;;
71464;SDS011;59274;49.874;9.154;2022-12-08T05:09:36;16.58;;;8.18;;
71464;SDS011;59274;49.874;9.154;2022-12-08T05:12:01;15.90;;;7.73;;
71464;SDS011;59274;49.874;9.154;2022-12-08T05:14:27;17.77;;;8.10;;
71464;SDS011;59274;49.874;9.154;2022-12-08T05:16:52;18.85;;;8.32;;
71464;SDS011;59274;49.874;9.154;2022-12-08T05:19:18;16.33;;;7.37;;
71464;SDS011;59274;49.874;9.154;2022-12-08T05:21:43;16.17;;;7.97;;
71464;SDS011;59274;49.874;9.154;2022-12-08T05:24:09;18.13;;;8.90;;
71464;SDS011;59274;49.874;9.154;2022-12-08T05:26:35;17.33;;;7.77;;
71464;SDS011;59274;49.874;9.154;2022-12-08T05:29:01;16.30;;;7.90;;
71464;SDS011;59274;49.874;9.154;2022-12-08T05:31:26;17.45;;;8.00;;
71464;SDS011;59274;49.874;9.154;2022-12-08T05:33:52;16.77;;;8.27;;
71464;SDS011;59274;49.874;9.154;2022-12-08T05:36:18;15.73;;;7.70;;
71464;SDS011;59274;49.874;9.154;2022-12-08T05:38:43;19.73;;;8.57;;
71464;SDS011;59274;49.874;9.154;2022-12-08T05:41:19;16.77;;;8.10;;
71464;SDS011;59274;49.874;9.154;2022-12-08T05:43:45;16.08;;;7.22;;
71464;SDS011;59274;49.874;9.154;2022-12-08T05:46:12;16.65;;;7.72;;
71464;SDS011;59274;49.874;9.154;2022-12-08T05:48:38;14.70;;;7.27;;
71464;SDS011;59274;49.874;9.154;2022-12-08T05:51:04;16.20;;;8.05;;
71464;SDS011;59274;49.874;9.154;2022-12-08T05:53:40;18.75;;;7.53;;
71464;SDS011;59274;49.874;9.154;2022-12-08T05:56:05;15.37;;;7.20;;
71464;SDS011;59274;49.874;9.154;2022-12-08T05:58:31;17.38;;;7.57;;
71464;SDS011;59274;49.874;9.154;2022-12-08T06:00:56;16.43;;;6.73;;
71464;SDS011;59274;49.874;9.154;2022-12-08T06:03:22;16.37;;;7.47;;
71464;SDS011;59274;49.874;9.154;2022-12-08T06:05:47;16.23;;;7.07;;
71464;SDS011;59274;49.874;9.154;2022-12-08T06:08:12;14.73;;;6.72;;
71464;SDS011;59274;49.874;9.154;2022-12-08T06:10:39;16.17;;;7.30;;
71464;SDS011;59274;49.874;9.154;2022-12-08T06:13:06;15.40;;;7.35;;
71464;SDS011;59274;49.874;9.154;2022-12-08T06:15:33;15.30;;;7.13;;
71464;SDS011;59274;49.874;9.154;2022-12-08T06:17:59;19.70;;;7.45;;
71464;SDS011;59274;49.874;9.154;2022-12-08T06:20:24;16.10;;;7.27;;
71464;SDS011;59274;49.874;9.154;2022-12-08T06:22:49;17.57;;;8.27;;
71464;SDS011;59274;49.874;9.154;2022-12-08T06:25:15;15.97;;;7.57;;
71464;SDS011;59274;49.874;9.154;2022-12-08T06:27:40;18.58;;;7.65;;
71464;SDS011;59274;49.874;9.154;2022-12-08T06:30:06;16.53;;;7.30;;
71464;SDS011;59274;49.874;9.154;2022-12-08T06:32:32;19.05;;;8.32;;
71464;SDS011;59274;49.874;9.154;2022-12-08T06:34:57;15.43;;;7.18;;
71464;SDS011;59274;49.874;9.154;2022-12-08T06:37:23;15.53;;;7.73;;
71464;SDS011;59274;49.874;9.154;2022-12-08T06:39:48;17.23;;;8.80;;
71464;SDS011;59274;49.874;9.154;2022-12-08T06:42:13;19.57;;;7.70;;
71464;SDS011;59274;49.874;9.154;2022-12-08T06:44:57;17.30;;;7.32;;
71464;SDS011;59274;49.874;9.154;2022-12-08T06:47:23;18.83;;;7.80;;
71464;SDS011;59274;49.874;9.154;2022-12-08T06:49:49;14.73;;;7.00;;
71464;SDS011;59274;49.874;9.154;2022-12-08T06:52:14;18.03;;;8.10;;
71464;SDS011;59274;49.874;9.154;2022-12-08T06:54:40;16.48;;;7.70;;
71464;SDS011;59274;49.874;9.154;2022-12-08T06:57:08;18.02;;;8.07;;
71464;SDS011;59274;49.874;9.154;2022-12-08T06:59:33;17.20;;;7.40;;
71464;SDS011;59274;49.874;9.154;2022-12-08T07:01:59;14.70;;;6.90;;
71464;SDS011;59274;49.874;9.154;2022-12-08T07:04:24;16.57;;;7.50;;
71464;SDS011;59274;49.874;9.154;2022-12-08T07:06:50;19.60;;;7.63;;
71464;SDS011;59274;49.874;9.154;2022-12-08T07:09:15;17.00;;;7.60;;
71464;SDS011;59274;49.874;9.154;2022-12-08T07:11:40;20.77;;;8.27;;
71464;SDS011;59274;49.874;9.154;2022-12-08T07:14:06;16.65;;;7.93;;
71464;SDS011;59274;49.874;9.154;2022-12-08T07:16:31;17.13;;;7.90;;
71464;SDS011;59274;49.874;9.154;2022-12-08T07:18:58;14.37;;;7.17;;
71464;SDS011;59274;49.874;9.154;2022-12-08T07:21:23;15.75;;;7.13;;
71464;SDS011;59274;49.874;9.154;2022-12-08T07:23:49;20.70;;;8.35;;
71464;SDS011;59274;49.874;9.154;2022-12-08T07:26:15;17.70;;;7.87;;
71464;SDS011;59274;49.874;9.154;2022-12-08T07:28:41;17.17;;;7.63;;
71464;SDS011;59274;49.874;9.154;2022-12-08T07:31:07;16.88;;;7.63;;
71464;SDS011;59274;49.874;9.154;2022-12-08T07:33:41;18.20;;;7.38;;
71464;SDS011;59274;49.874;9.154;2022-12-08T07:36:06;15.53;;;7.60;;
71464;SDS011;59274;49.874;9.154;2022-12-08T07:38:32;18.17;;;7.78;;
71464;SDS011;59274;49.874;9.154;2022-12-08T07:40:58;15.40;;;7.17;;
71464;SDS011;59274;49.874;9.154;2022-12-08T07:43:24;17.17;;;8.00;;
71464;SDS011;59274;49.874;9.154;2022-12-08T07:45:49;14.80;;;7.37;;
71464;SDS011;59274;49.874;9.154;2022-12-08T07:48:15;15.82;;;7.40;;
71464;SDS011;59274;49.874;9.154;2022-12-08T07:50:40;15.07;;;7.17;;
71464;SDS011;59274;49.874;9.154;2022-12-08T07:53:07;14.30;;;6.95;;
71464;SDS011;59274;49.874;9.154;2022-12-08T07:55:33;15.63;;;7.10;;
71464;SDS011;59274;49.874;9.154;2022-12-08T07:57:58;17.70;;;7.83;;
71464;SDS011;59274;49.874;9.154;2022-12-08T08:00:24;18.40;;;8.10;;
71464;SDS011;59274;49.874;9.154;2022-12-08T08:02:49;14.30;;;7.25;;
71464;SDS011;59274;49.874;9.154;2022-12-08T08:05:15;15.03;;;7.60;;
71464;SDS011;59274;49.874;9.154;2022-12-08T08:07:41;15.80;;;7.78;;
71464;SDS011;59274;49.874;9.154;2022-12-08T08:10:08;19.13;;;7.57;;
71464;SDS011;59274;49.874;9.154;2022-12-08T08:12:35;14.57;;;6.63;;
71464;SDS011;59274;49.874;9.154;2022-12-08T08:15:02;17.30;;;7.25;;
71464;SDS011;59274;49.874;9.154;2022-12-08T08:17:31;16.45;;;7.03;;
71464;SDS011;59274;49.874;9.154;2022-12-08T08:19:57;16.23;;;7.35;;
71464;SDS011;59274;49.874;9.154;2022-12-08T08:22:24;15.82;;;6.50;;
71464;SDS011;59274;49.874;9.154;2022-12-08T08:24:50;13.00;;;5.97;;
71464;SDS011;59274;49.874;9.154;2022-12-08T08:27:15;12.13;;;6.13;;
71464;SDS011;59274;49.874;9.154;2022-12-08T08:29:41;15.00;;;7.00;;
71464;SDS011;59274;49.874;9.154;2022-12-08T08:32:06;14.18;;;6.85;;
71464;SDS011;59274;49.874;9.154;2022-12-08T08:34:32;13.33;;;6.80;;
71464;SDS011;59274;49.874;9.154;2022-12-08T08:36:57;15.67;;;6.30;;
71464;SDS011;59274;49.874;9.154;2022-12-08T08:39:23;15.38;;;6.53;;
71464;SDS011;59274;49.874;9.154;2022-12-08T08:41:49;14.67;;;6.03;;
71464;SDS011;59274;49.874;9.154;2022-12-08T08:44:15;13.98;;;6.28;;
71464;SDS011;59274;49.874;9.154;2022-12-08T08:46:41;12.67;;;5.50;;
71464;SDS011;59274;49.874;9.154;2022-12-08T08:49:06;12.35;;;5.82;;
71464;SDS011;59274;49.874;9.154;2022-12-08T08:51:32;12.70;;;5.88;;
71464;SDS011;59274;49.874;9.154;2022-12-08T08:53:57;12.33;;;5.80;;
71464;SDS011;59274;49.874;9.154;2022-12-08T08:56:23;11.90;;;5.70;;
71464;SDS011;59274;49.874;9.154;2022-12-08T08:58:49;12.35;;;6.10;;
71464;SDS011;59274;49.874;9.154;2022-12-08T09:01:17;13.32;;;6.20;;
71464;SDS011;59274;49.874;9.154;2022-12-08T09:03:45;11.65;;;5.75;;
71464;SDS011;59274;49.874;9.154;2022-12-08T09:06:12;11.93;;;5.93;;
71464;SDS011;59274;49.874;9.154;2022-12-08T09:08:38;10.93;;;5.23;;
71464;SDS011;59274;49.874;9.154;2022-12-08T09:11:04;14.68;;;6.15;;
71464;SDS011;59274;49.874;9.154;2022-12-08T09:13:30;12.45;;;5.57;;
71464;SDS011;59274;49.874;9.154;2022-12-08T09:16:02;14.67;;;6.13;;
71464;SDS011;59274;49.874;9.154;2022-12-08T09:18:30;12.15;;;5.25;;
71464;SDS011;59274;49.874;9.154;2022-12-08T09:20:56;11.57;;;5.65;;
71464;SDS011;59274;49.874;9.154;2022-12-08T09:23:31;12.20;;;5.57;;
71464;SDS011;59274;49.874;9.154;2022-12-08T09:25:56;15.03;;;5.90;;
71464;SDS011;59274;49.874;9.154;2022-12-08T09:28:22;11.03;;;5.07;;
71464;SDS011;59274;49.874;9.154;2022-12-08T09:30:47;16.23;;;6.05;;
71464;SDS011;59274;49.874;9.154;2022-12-08T09:33:22;16.33;;;5.50;;
71464;SDS011;59274;49.874;9.154;2022-12-08T09:35:47;12.30;;;6.05;;
71464;SDS011;59274;49.874;9.154;2022-12-08T09:38:12;12.83;;;5.90;;
71464;SDS011;59274;49.874;9.154;2022-12-08T09:40:45;11.00;;;5.37;;
71464;SDS011;59274;49.874;9.154;2022-12-08T09:46:03;10.55;;;4.65;;
71464;SDS011;59274;49.874;9.154;2022-12-08T09:48:33;10.07;;;5.15;;
71464;SDS011;59274;49.874;9.154;2022-12-08T09:51:02;12.50;;;5.47;;
71464;SDS011;59274;49.874;9.154;2022-12-08T09:53:36;13.18;;;5.43;;
71464;SDS011;59274;49.874;9.154;2022-12-08T09:56:15;13.60;;;5.63;;
71464;SDS011;59274;49.874;9.154;2022-12-08T10:01:28;15.65;;;5.80;;
71464;SDS011;59274;49.874;9.154;2022-12-08T10:04:02;12.20;;;5.43;;
71464;SDS011;59274;49.874;9.154;2022-12-08T10:06:48;10.65;;;5.25;;
71464;SDS011;59274;49.874;9.154;2022-12-08T10:14:42;10.45;;;4.80;;
71464;SDS011;59274;49.874;9.154;2022-12-08T10:17:28;11.63;;;5.00;;
71464;SDS011;59274;49.874;9.154;2022-12-08T10:20:23;11.15;;;5.28;;
71464;SDS011;59274;49.874;9.154;2022-12-08T10:22:56;12.35;;;5.38;;
71464;SDS011;59274;49.874;9.154;2022-12-08T10:26:04;10.60;;;4.88;;
71464;SDS011;59274;49.874;9.154;2022-12-08T10:28:53;9.80;;;4.45;;
71464;SDS011;59274;49.874;9.154;2022-12-08T10:31:25;10.77;;;4.67;;
71464;SDS011;59274;49.874;9.154;2022-12-08T10:34:16;11.32;;;4.60;;
71464;SDS011;59274;49.874;9.154;2022-12-08T10:36:45;11.73;;;5.03;;
71464;SDS011;59274;49.874;9.154;2022-12-08T10:41:59;9.93;;;4.40;;
71464;SDS011;59274;49.874;9.154;2022-12-08T10:44:29;9.63;;;4.23;;
71464;SDS011;59274;49.874;9.154;2022-12-08T10:47:14;8.52;;;4.05;;
71464;SDS011;59274;49.874;9.154;2022-12-08T10:49:40;10.13;;;4.40;;
71464;SDS011;59274;49.874;9.154;2022-12-08T10:52:20;20.27;;;6.70;;
71464;SDS011;59274;49.874;9.154;2022-12-08T10:54:51;12.77;;;5.38;;
71464;SDS011;59274;49.874;9.154;2022-12-08T10:57:19;9.60;;;3.92;;
71464;SDS011;59274;49.874;9.154;2022-12-08T10:59:46;9.95;;;4.55;;
71464;SDS011;59274;49.874;9.154;2022-12-08T11:02:15;8.90;;;3.63;;
71464;SDS011;59274;49.874;9.154;2022-12-08T11:04:44;7.97;;;3.75;;
71464;SDS011;59274;49.874;9.154;2022-12-08T11:07:10;9.23;;;3.30;;
71464;SDS011;59274;49.874;9.154;2022-12-08T11:09:47;9.57;;;3.88;;
71464;SDS011;59274;49.874;9.154;2022-12-08T11:12:18;11.63;;;4.35;;
71464;SDS011;59274;49.874;9.154;2022-12-08T11:17:21;11.70;;;3.97;;
71464;SDS011;59274;49.874;9.154;2022-12-08T11:19:57;10.25;;;3.80;;
71464;SDS011;59274;49.874;9.154;2022-12-08T11:22:25;8.63;;;3.67;;
71464;SDS011;59274;49.874;9.154;2022-12-08T11:25:01;8.50;;;3.25;;
71464;SDS011;59274;49.874;9.154;2022-12-08T11:27:27;8.98;;;3.53;;
71464;SDS011;59274;49.874;9.154;2022-12-08T11:29:53;8.27;;;3.50;;
71464;SDS011;59274;49.874;9.154;2022-12-08T11:32:18;8.65;;;3.17;;
71464;SDS011;59274;49.874;9.154;2022-12-08T11:34:55;8.40;;;3.10;;
71464;SDS011;59274;49.874;9.154;2022-12-08T11:39:58;9.23;;;2.90;;
71464;SDS011;59274;49.874;9.154;2022-12-08T11:42:30;6.85;;;2.85;;
71464;SDS011;59274;49.874;9.154;2022-12-08T11:45:05;7.95;;;2.60;;
71464;SDS011;59274;49.874;9.154;2022-12-08T11:47:57;8.10;;;2.93;;
71464;SDS011;59274;49.874;9.154;2022-12-08T11:50:56;7.72;;;2.67;;
71464;SDS011;59274;49.874;9.154;2022-12-08T11:56:31;8.93;;;2.60;;
71464;SDS011;59274;49.874;9.154;2022-12-08T11:59:06;6.68;;;2.58;;
71464;SDS011;59274;49.874;9.154;2022-12-08T12:01:33;7.00;;;2.77;;
71464;SDS011;59274;49.874;9.154;2022-12-08T12:09:16;8.82;;;2.92;;
71464;SDS011;59274;49.874;9.154;2022-12-08T12:20:19;8.95;;;3.47;;
71464;SDS011;59274;49.874;9.154;2022-12-08T12:22:51;9.20;;;3.20;;
71464;SDS011;59274;49.874;9.154;2022-12-08T12:25:30;7.38;;;3.03;;
71464;SDS011;59274;49.874;9.154;2022-12-08T12:27:58;9.65;;;3.25;;
71464;SDS011;59274;49.874;9.154;2022-12-08T12:30:29;8.68;;;3.40;;
71464;SDS011;59274;49.874;9.154;2022-12-08T12:33:15;7.15;;;3.10;;
71464;SDS011;59274;49.874;9.154;2022-12-08T12:35:42;9.40;;;3.50;;
71464;SDS011;59274;49.874;9.154;2022-12-08T12:38:17;7.88;;;3.25;;
71464;SDS011;59274;49.874;9.154;2022-12-08T12:41:06;8.80;;;3.70;;
71464;SDS011;59274;49.874;9.154;2022-12-08T12:43:34;8.68;;;3.67;;
71464;SDS011;59274;49.874;9.154;2022-12-08T12:48:48;8.77;;;3.03;;
71464;SDS011;59274;49.874;9.154;2022-12-08T12:51:41;9.27;;;3.38;;
71464;SDS011;59274;49.874;9.154;2022-12-08T12:54:21;7.55;;;3.30;;
71464;SDS011;59274;49.874;9.154;2022-12-08T12:56:55;7.65;;;3.00;;
71464;SDS011;59274;49.874;9.154;2022-12-08T12:59:49;7.43;;;2.58;;
71464;SDS011;59274;49.874;9.154;2022-12-08T13:02:37;6.83;;;2.63;;
71464;SDS011;59274;49.874;9.154;2022-12-08T13:07:52;8.77;;;3.10;;
71464;SDS011;59274;49.874;9.154;2022-12-08T13:10:46;6.55;;;2.88;;
71464;SDS011;59274;49.874;9.154;2022-12-08T13:13:22;7.78;;;3.35;;
71464;SDS011;59274;49.874;9.154;2022-12-08T13:15:50;7.73;;;3.43;;
71464;SDS011;59274;49.874;9.154;2022-12-08T13:18:35;8.85;;;3.60;;
71464;SDS011;59274;49.874;9.154;2022-12-08T13:21:11;8.70;;;3.33;;
71464;SDS011;59274;49.874;9.154;2022-12-08T13:23:43;9.65;;;3.28;;
71464;SDS011;59274;49.874;9.154;2022-12-08T13:26:15;8.00;;;2.97;;
71464;SDS011;59274;49.874;9.154;2022-12-08T13:31:42;8.90;;;4.18;;
71464;SDS011;59274;49.874;9.154;2022-12-08T13:34:15;10.73;;;4.47;;
71464;SDS011;59274;49.874;9.154;2022-12-08T13:39:42;8.00;;;3.67;;
71464;SDS011;59274;49.874;9.154;2022-12-08T13:42:23;9.37;;;4.27;;
71464;SDS011;59274;49.874;9.154;2022-12-08T13:50:49;8.60;;;2.53;;
71464;SDS011;59274;49.874;9.154;2022-12-08T13:53:23;7.82;;;2.83;;
71464;SDS011;59274;49.874;9.154;2022-12-08T13:55:58;8.23;;;2.57;;
71464;SDS011;59274;49.874;9.154;2022-12-08T13:58:29;8.60;;;2.97;;
71464;SDS011;59274;49.874;9.154;2022-12-08T14:01:07;9.75;;;3.45;;
71464;SDS011;59274;49.874;9.154;2022-12-08T14:03:46;6.63;;;2.60;;
71464;SDS011;59274;49.874;9.154;2022-12-08T14:06:16;6.88;;;2.70;;
71464;SDS011;59274;49.874;9.154;2022-12-08T14:08:45;7.97;;;2.93;;
71464;SDS011;59274;49.874;9.154;2022-12-08T14:11:19;8.65;;;2.97;;
71464;SDS011;59274;49.874;9.154;2022-12-08T14:14:01;7.57;;;2.75;;
71464;SDS011;59274;49.874;9.154;2022-12-08T14:16:39;6.88;;;2.80;;
71464;SDS011;59274;49.874;9.154;2022-12-08T14:19:25;7.20;;;2.78;;
71464;SDS011;59274;49.874;9.154;2022-12-08T14:22:05;8.30;;;3.20;;
71464;SDS011;59274;49.874;9.154;2022-12-08T14:24:38;7.22;;;2.85;;
71464;SDS011;59274;49.874;9.154;2022-12-08T14:27:05;6.78;;;2.83;;
71464;SDS011;59274;49.874;9.154;2022-12-08T14:34:57;6.47;;;2.40;;
71464;SDS011;59274;49.874;9.154;2022-12-08T14:37:24;9.60;;;3.20;;
71464;SDS011;59274;49.874;9.154;2022-12-08T14:39:51;10.13;;;3.60;;
71464;SDS011;59274;49.874;9.154;2022-12-08T14:42:23;7.70;;;2.63;;
71464;SDS011;59274;49.874;9.154;2022-12-08T14:44:59;8.23;;;3.13;;
71464;SDS011;59274;49.874;9.154;2022-12-08T14:47:29;10.53;;;3.33;;
71464;SDS011;59274;49.874;9.154;2022-12-08T14:49:55;13.90;;;4.50;;
71464;SDS011;59274;49.874;9.154;2022-12-08T14:52:22;7.65;;;3.30;;
71464;SDS011;59274;49.874;9.154;2022-12-08T14:54:48;8.73;;;3.15;;
71464;SDS011;59274;49.874;9.154;2022-12-08T14:57:15;8.82;;;3.53;;
71464;SDS011;59274;49.874;9.154;2022-12-08T14:59:41;9.77;;;3.17;;
71464;SDS011;59274;49.874;9.154;2022-12-08T15:04:44;11.18;;;4.15;;
71464;SDS011;59274;49.874;9.154;2022-12-08T15:07:13;10.82;;;4.18;;
71464;SDS011;59274;49.874;9.154;2022-12-08T15:09:44;9.83;;;4.17;;
71464;SDS011;59274;49.874;9.154;2022-12-08T15:18:18;12.70;;;4.15;;
71464;SDS011;59274;49.874;9.154;2022-12-08T15:22:50;10.60;;;4.60;;
71464;SDS011;59274;49.874;9.154;2022-12-08T15:25:17;21.98;;;6.72;;
71464;SDS011;59274;49.874;9.154;2022-12-08T15:27:42;11.77;;;4.73;;
71464;SDS011;59274;49.874;9.154;2022-12-08T15:30:12;10.55;;;4.40;;
71464;SDS011;59274;49.874;9.154;2022-12-08T15:32:38;10.75;;;4.82;;
71464;SDS011;59274;49.874;9.154;2022-12-08T15:35:04;9.82;;;4.38;;
71464;SDS011;59274;49.874;9.154;2022-12-08T15:37:30;12.25;;;4.45;;
71464;SDS011;59274;49.874;9.154;2022-12-08T15:39:55;12.90;;;4.80;;
71464;SDS011;59274;49.874;9.154;2022-12-08T15:42:20;10.75;;;4.70;;
71464;SDS011;59274;49.874;9.154;2022-12-08T15:44:46;10.57;;;4.40;;
71464;SDS011;59274;49.874;9.154;2022-12-08T15:47:15;12.97;;;4.40;;
71464;SDS011;59274;49.874;9.154;2022-12-08T15:49:41;10.60;;;4.53;;
71464;SDS011;59274;49.874;9.154;2022-12-08T15:52:18;10.93;;;5.27;;
71464;SDS011;59274;49.874;9.154;2022-12-08T15:54:46;13.98;;;5.60;;
71464;SDS011;59274;49.874;9.154;2022-12-08T15:57:21;12.25;;;4.88;;
71464;SDS011;59274;49.874;9.154;2022-12-08T15:59:51;11.57;;;5.00;;
71464;SDS011;59274;49.874;9.154;2022-12-08T16:02:17;13.00;;;4.93;;
71464;SDS011;59274;49.874;9.154;2022-12-08T16:04:43;11.40;;;5.00;;
71464;SDS011;59274;49.874;9.154;2022-12-08T16:07:17;12.05;;;5.30;;
71464;SDS011;59274;49.874;9.154;2022-12-08T16:09:45;11.90;;;4.60;;
71464;SDS011;59274;49.874;9.154;2022-12-08T16:12:15;11.83;;;5.00;;
71464;SDS011;59274;49.874;9.154;2022-12-08T16:15:07;11.10;;;5.45;;
71464;SDS011;59274;49.874;9.154;2022-12-08T16:17:36;11.98;;;5.13;;
71464;SDS011;59274;49.874;9.154;2022-12-08T16:20:04;12.05;;;5.55;;
71464;SDS011;59274;49.874;9.154;2022-12-08T16:22:42;11.47;;;5.10;;
71464;SDS011;59274;49.874;9.154;2022-12-08T16:25:09;10.77;;;4.90;;
71464;SDS011;59274;49.874;9.154;2022-12-08T16:27:38;14.65;;;5.85;;
71464;SDS011;59274;49.874;9.154;2022-12-08T16:30:05;12.65;;;5.20;;